createdAt,value
2022-09-28T00:01:22.923Z,99152.97
2022-09-28T00:03:52.139Z,99141.88
2022-09-28T00:06:21.417Z,99154.84
2022-09-28T00:08:50.040Z,99143.00
2022-09-28T00:11:18.839Z,99147.91
2022-09-28T00:13:48.365Z,99139.75
2022-09-28T00:16:20.767Z,99140.25
2022-09-28T00:18:47.245Z,99139.19
2022-09-28T00:21:18.661Z,99144.31
2022-09-28T00:24:04.497Z,99141.09
2022-09-28T00:26:33.123Z,99134.41
2022-09-28T00:29:01.930Z,99136.06
2022-09-28T00:31:33.741Z,99131.69
2022-09-28T00:34:05.303Z,99131.69
2022-09-28T00:36:33.402Z,99118.34
2022-09-28T00:39:04.858Z,99116.66
2022-09-28T00:41:31.386Z,99120.19
2022-09-28T00:44:22.654Z,99115.28
2022-09-28T00:46:58.637Z,99113.09
2022-09-28T00:49:43.294Z,99109.72
2022-09-28T00:52:14.695Z,99102.13
2022-09-28T00:54:44.536Z,99101.84
2022-09-28T00:57:11.434Z,99103.38
2022-09-28T00:59:38.180Z,99103.38
2022-09-28T01:02:04.934Z,99101.09
2022-09-28T01:04:31.660Z,99098.41
2022-09-28T01:06:59.189Z,99098.63
2022-09-28T01:09:27.590Z,99094.81
2022-09-28T01:11:55.139Z,99092.63
2022-09-28T01:14:25.507Z,99086.94
2022-09-28T01:17:17.894Z,99087.81
2022-09-28T01:20:07.267Z,99081.31
2022-09-28T01:23:00.100Z,99077.44
2022-09-28T01:25:51.944Z,99081.44
2022-09-28T01:28:21.492Z,99074.06
2022-09-28T01:31:00.094Z,99070.75
2022-09-28T01:33:35.203Z,99073.97
2022-09-28T01:36:12.442Z,99082.59
2022-09-28T01:38:48.595Z,99062.53
2022-09-28T01:41:17.934Z,99073.69
2022-09-28T01:43:54.554Z,99069.06
2022-09-28T01:46:30.254Z,99064.44
2022-09-28T01:48:58.372Z,99067.38
2022-09-28T01:51:34.052Z,99065.78
2022-09-28T01:54:08.179Z,99061.16
2022-09-28T01:56:47.398Z,99050.34
2022-09-28T01:59:19.911Z,99047.06
2022-09-28T02:01:55.290Z,99046.25
2022-09-28T02:04:29.391Z,99057.06
2022-09-28T02:07:05.258Z,99046.84
2022-09-28T02:09:42.893Z,99041.72
2022-09-28T02:12:19.557Z,99040.84
2022-09-28T02:14:49.113Z,99041.63
2022-09-28T02:17:16.204Z,99042.44
2022-09-28T02:19:47.088Z,99030.03
2022-09-28T02:22:43.727Z,99030.63
2022-09-28T02:25:38.423Z,99025.31
2022-09-28T02:28:07.783Z,99026.88
2022-09-28T02:30:37.629Z,99026.28
2022-09-28T02:33:12.865Z,99023.47
2022-09-28T02:35:41.865Z,99027.06
2022-09-28T02:38:11.546Z,99018.94
2022-09-28T02:40:39.174Z,99020.84
2022-09-28T02:43:18.282Z,99007.22
2022-09-28T02:46:10.997Z,99018.34
2022-09-28T02:49:30.289Z,99016.41
2022-09-28T02:52:24.933Z,99012.31
2022-09-28T02:55:18.055Z,99009.69
2022-09-28T02:58:11.076Z,99006.59
2022-09-28T03:00:44.758Z,99008.81
2022-09-28T03:03:17.144Z,99004.81
2022-09-28T03:06:05.198Z,99000.19
2022-09-28T03:08:44.919Z,98996.69
2022-09-28T03:11:30.711Z,99003.69
2022-09-28T03:13:58.292Z,98995.78
2022-09-28T03:16:33.819Z,99003.59
2022-09-28T03:19:02.810Z,98994.19
2022-09-28T03:21:29.944Z,98996.31
2022-09-28T03:23:57.608Z,98993.53
2022-09-28T03:26:24.126Z,98993.00
2022-09-28T03:28:50.681Z,98999.31
2022-09-28T03:31:23.184Z,98998.63
2022-09-28T03:33:51.329Z,98994.63
2022-09-28T03:36:18.047Z,98994.50
2022-09-28T03:38:44.838Z,98992.00
2022-09-28T03:41:11.471Z,98993.81
2022-09-28T03:43:41.154Z,98984.88
2022-09-28T03:46:07.897Z,98984.59
2022-09-28T03:48:40.136Z,98983.78
2022-09-28T03:51:11.228Z,98987.59
2022-09-28T03:53:39.146Z,98988.91
2022-09-28T03:56:11.748Z,98979.03
2022-09-28T03:58:39.416Z,98983.00
2022-09-28T04:01:12.893Z,98976.19
2022-09-28T04:03:40.864Z,98980.88
2022-09-28T04:06:07.504Z,98972.19
2022-09-28T04:08:35.232Z,98965.81
2022-09-28T04:11:02.531Z,98964.47
2022-09-28T04:13:30.457Z,98970.97
2022-09-28T04:16:00.692Z,98959.25
2022-09-28T04:18:29.712Z,98976.16
2022-09-28T04:21:19.379Z,98969.97
2022-09-28T04:23:51.270Z,98973.75
2022-09-28T04:26:20.679Z,98968.63
2022-09-28T04:29:07.140Z,98973.66
2022-09-28T04:31:39.984Z,98966.72
2022-09-28T04:34:06.708Z,98975.38
2022-09-28T04:36:33.597Z,98976.38
2022-09-28T04:39:00.240Z,98970.16
2022-09-28T04:41:28.592Z,98965.56
2022-09-28T04:43:55.861Z,98967.56
2022-09-28T04:46:24.972Z,98969.66
2022-09-28T04:49:17.435Z,98973.66
2022-09-28T04:51:48.783Z,98958.75
2022-09-28T04:54:15.256Z,98974.53
2022-09-28T04:56:41.833Z,98971.75
2022-09-28T04:59:08.636Z,98970.47
2022-09-28T05:01:37.012Z,98964.75
2022-09-28T05:04:25.826Z,98956.56
2022-09-28T05:07:04.453Z,98964.88
2022-09-28T05:09:33.973Z,98966.72
2022-09-28T05:12:05.009Z,98965.94
2022-09-28T05:14:31.634Z,98967.34
2022-09-28T05:16:58.306Z,98971.13
2022-09-28T05:19:27.813Z,98972.47
2022-09-28T05:22:04.493Z,98970.47
2022-09-28T05:24:38.416Z,98970.16
2022-09-28T05:27:05.496Z,98960.06
2022-09-28T05:29:32.829Z,98974.44
2022-09-28T05:32:35.313Z,98969.66
2022-09-28T05:35:11.847Z,98969.97
2022-09-28T05:37:41.597Z,98966.72
2022-09-28T05:40:08.728Z,98967.25
2022-09-28T05:42:35.981Z,98973.97
2022-09-28T05:45:04.376Z,98973.66
2022-09-28T05:47:30.942Z,98972.06
2022-09-28T05:49:57.367Z,98968.63
2022-09-28T05:52:23.868Z,98966.44
2022-09-28T05:54:50.334Z,98975.06
2022-09-28T05:57:16.820Z,98983.97
2022-09-28T05:59:43.211Z,98971.53
2022-09-28T06:02:10.531Z,98976.16
2022-09-28T06:04:37.259Z,98978.38
2022-09-28T06:07:05.069Z,98981.53
2022-09-28T06:09:31.616Z,98982.13
2022-09-28T06:12:15.915Z,98983.03
2022-09-28T06:14:45.593Z,98982.34
2022-09-28T06:17:12.836Z,98985.53
2022-09-28T06:19:39.376Z,98989.44
2022-09-28T06:22:16.150Z,98991.22
2022-09-28T06:24:55.361Z,98991.44
2022-09-28T06:27:23.888Z,98994.75
2022-09-28T06:29:50.423Z,98992.34
2022-09-28T06:32:16.870Z,99001.16
2022-09-28T06:34:46.756Z,98997.66
2022-09-28T06:37:13.213Z,98998.88
2022-09-28T06:39:39.649Z,99002.41
2022-09-28T06:42:06.455Z,98997.78
2022-09-28T06:44:52.856Z,99006.59
2022-09-28T06:47:42.939Z,99010.66
2022-09-28T06:50:37.835Z,99008.44
2022-09-28T06:53:14.237Z,99011.97
2022-09-28T06:55:56.093Z,99024.09
2022-09-28T06:58:23.359Z,99019.88
2022-09-28T07:00:51.897Z,99014.38
2022-09-28T07:03:20.827Z,99023.50
2022-09-28T07:06:20.505Z,99022.41
2022-09-28T07:09:29.158Z,99024.91
2022-09-28T07:12:10.235Z,99025.31
2022-09-28T07:15:00.350Z,99029.13
2022-09-28T07:17:28.937Z,99035.84
2022-09-28T07:20:04.601Z,99035.25
2022-09-28T07:22:42.969Z,99030.25
2022-09-28T07:25:14.223Z,99043.19
2022-09-28T07:27:47.820Z,99047.56
2022-09-28T07:30:33.186Z,99045.41
2022-09-28T07:33:06.272Z,99048.69
2022-09-28T07:35:39.258Z,99051.81
2022-09-28T07:38:07.703Z,99057.00
2022-09-28T07:40:54.538Z,99052.38
2022-09-28T07:43:21.676Z,99059.81
2022-09-28T07:45:52.691Z,99061.91
2022-09-28T07:48:19.902Z,99063.81
2022-09-28T07:51:00.166Z,99074.41
2022-09-28T07:53:32.431Z,99072.00
2022-09-28T07:56:26.676Z,99074.75
2022-09-28T07:58:57.009Z,99071.50
2022-09-28T08:01:38.632Z,99083.59
2022-09-28T08:04:06.643Z,99078.28
2022-09-28T08:06:35.074Z,99081.66
2022-09-28T08:09:04.537Z,99081.72
2022-09-28T08:11:49.944Z,99085.75
2022-09-28T08:14:34.331Z,99091.50
2022-09-28T08:17:29.038Z,99096.00
2022-09-28T08:20:17.289Z,99095.38
2022-09-28T08:22:44.271Z,99100.13
2022-09-28T08:25:11.302Z,99107.25
2022-09-28T08:27:38.077Z,99099.03
2022-09-28T08:30:05.846Z,99107.22
2022-09-28T08:32:49.397Z,99101.91
2022-09-28T08:35:36.242Z,99105.59
2022-09-28T08:38:13.328Z,99114.84
2022-09-28T08:41:05.322Z,99114.88
2022-09-28T08:44:10.310Z,99117.09
2022-09-28T08:47:00.790Z,99121.53
2022-09-28T08:49:51.119Z,99122.41
2022-09-28T08:52:40.787Z,99127.84
2022-09-28T08:55:38.137Z,99131.69
2022-09-28T08:58:22.735Z,99126.31
2022-09-28T09:00:51.461Z,99133.16
2022-09-28T09:03:24.187Z,99134.38
2022-09-28T09:06:18.706Z,99143.28
2022-09-28T09:09:37.034Z,99139.03
2022-09-28T09:12:22.032Z,99136.72
2022-09-28T09:15:07.751Z,99146.97
2022-09-28T09:17:41.741Z,99141.25
2022-09-28T09:20:41.667Z,99145.34
2022-09-28T09:23:39.340Z,99149.50
2022-09-28T09:26:23.544Z,99145.66
2022-09-28T09:29:09.590Z,99154.06
2022-09-28T09:32:06.905Z,99158.81
2022-09-28T09:35:28.164Z,99155.22
2022-09-28T09:38:33.236Z,99160.31
2022-09-28T09:41:36.459Z,99162.16
2022-09-28T09:44:33.510Z,99162.06
2022-09-28T09:47:37.948Z,99167.56
2022-09-28T09:50:29.766Z,99174.16
2022-09-28T09:53:03.222Z,99169.03
2022-09-28T09:55:43.731Z,99173.28
2022-09-28T09:58:44.613Z,99180.09
2022-09-28T10:01:20.465Z,99170.19
2022-09-28T10:04:25.849Z,99176.94
2022-09-28T10:07:02.741Z,99184.03
2022-09-28T10:09:35.190Z,99175.13
2022-09-28T10:12:21.856Z,99180.72
2022-09-28T10:14:55.983Z,99177.13
2022-09-28T10:17:27.347Z,99181.78
2022-09-28T10:20:25.427Z,99183.09
2022-09-28T10:23:03.155Z,99180.47
2022-09-28T10:25:33.426Z,99186.38
2022-09-28T10:28:01.926Z,99186.09
2022-09-28T10:30:42.213Z,99194.66
2022-09-28T10:33:32.054Z,99187.91
2022-09-28T10:36:04.870Z,99200.56
2022-09-28T10:38:33.133Z,99198.25
2022-09-28T10:41:13.877Z,99193.41
2022-09-28T10:44:10.839Z,99198.16
2022-09-28T10:47:02.504Z,99200.16
2022-09-28T10:49:46.553Z,99195.13
2022-09-28T10:52:36.905Z,99200.88
2022-09-28T10:55:26.717Z,99206.28
2022-09-28T10:57:53.295Z,99203.19
2022-09-28T11:00:31.904Z,99200.38
2022-09-28T11:03:20.572Z,99202.75
2022-09-28T11:06:07.934Z,99199.44
2022-09-28T11:08:45.676Z,99203.31
2022-09-28T11:11:21.374Z,99202.78
2022-09-28T11:14:01.135Z,99210.22
2022-09-28T11:16:34.241Z,99215.94
2022-09-28T11:19:27.592Z,99208.56
2022-09-28T11:21:54.242Z,99205.56
2022-09-28T11:24:27.693Z,99209.88
2022-09-28T11:27:02.433Z,99213.81
2022-09-28T11:29:43.982Z,99214.00
2022-09-28T11:32:46.873Z,99207.78
2022-09-28T11:35:28.061Z,99215.41
2022-09-28T11:38:11.824Z,99214.47
2022-09-28T11:41:02.910Z,99222.38
2022-09-28T11:43:52.736Z,99224.75
2022-09-28T11:46:34.258Z,99211.66
2022-09-28T11:49:32.582Z,99217.09
2022-09-28T11:52:06.933Z,99215.75
2022-09-28T11:54:47.474Z,99218.88
2022-09-28T11:57:29.388Z,99214.13
2022-09-28T12:00:03.874Z,99217.13
2022-09-28T12:02:42.847Z,99219.91
2022-09-28T12:05:21.291Z,99216.84
2022-09-28T12:07:59.134Z,99225.53
2022-09-28T12:11:15.611Z,99223.25
2022-09-28T12:14:03.802Z,99229.88
2022-09-28T12:17:04.377Z,99229.91
2022-09-28T12:19:47.607Z,99236.38
2022-09-28T12:22:31.393Z,99233.13
2022-09-28T12:24:59.242Z,99227.53
2022-09-28T12:27:41.163Z,99232.22
2022-09-28T12:30:19.333Z,99230.81
2022-09-28T12:33:11.552Z,99231.31
2022-09-28T12:36:12.960Z,99233.94
2022-09-28T12:39:18.169Z,99227.25
2022-09-28T12:42:09.064Z,99236.25
2022-09-28T12:44:59.401Z,99238.78
2022-09-28T12:48:01.121Z,99238.09
2022-09-28T12:50:39.072Z,99235.00
2022-09-28T12:53:51.259Z,99239.47
2022-09-28T12:56:56.505Z,99234.56
2022-09-28T12:59:38.814Z,99236.06
2022-09-28T13:02:26.822Z,99243.22
2022-09-28T13:04:55.912Z,99236.09
2022-09-28T13:07:36.181Z,99241.44
2022-09-28T13:10:35.542Z,99235.38
2022-09-28T13:13:12.384Z,99242.16
2022-09-28T13:15:48.478Z,99238.91
2022-09-28T13:18:27.174Z,99236.06
2022-09-28T13:21:11.553Z,99240.56
2022-09-28T13:23:46.390Z,99240.13
2022-09-28T13:26:31.585Z,99245.13
2022-09-28T13:29:04.280Z,99238.56
2022-09-28T13:31:35.981Z,99240.75
2022-09-28T13:34:06.167Z,99237.09
2022-09-28T13:36:32.568Z,99238.56
2022-09-28T13:39:00.879Z,99245.78
2022-09-28T13:41:59.979Z,99242.72
2022-09-28T13:45:03.366Z,99239.66
2022-09-28T13:47:51.192Z,99246.50
2022-09-28T13:50:50.379Z,99244.38
2022-09-28T13:53:33.544Z,99248.81
2022-09-28T13:56:19.483Z,99256.97
2022-09-28T13:58:53.170Z,99257.66
2022-09-28T14:01:27.003Z,99249.81
2022-09-28T14:03:55.721Z,99251.63
2022-09-28T14:06:27.826Z,99250.63
2022-09-28T14:09:08.320Z,99258.66
2022-09-28T14:11:35.099Z,99264.94
2022-09-28T14:14:05.107Z,99261.19
2022-09-28T14:16:33.384Z,99264.50
2022-09-28T14:19:02.940Z,99257.84
2022-09-28T14:21:59.114Z,99264.78
2022-09-28T14:24:35.889Z,99262.56
2022-09-28T14:27:37.266Z,99264.16
2022-09-28T14:30:06.756Z,99266.25
2022-09-28T14:32:37.397Z,99264.06
2022-09-28T14:35:23.837Z,99267.72
2022-09-28T14:38:13.474Z,99268.84
2022-09-28T14:41:09.684Z,99273.66
2022-09-28T14:43:37.489Z,99272.56
2022-09-28T14:46:14.600Z,99275.88
2022-09-28T14:48:47.875Z,99279.97
2022-09-28T14:51:26.655Z,99283.50
2022-09-28T14:53:55.231Z,99281.59
2022-09-28T14:56:22.237Z,99281.44
2022-09-28T14:58:55.994Z,99278.78
2022-09-28T15:01:24.856Z,99279.66
2022-09-28T15:03:56.321Z,99281.59
2022-09-28T15:06:23.946Z,99280.06
2022-09-28T15:08:50.404Z,99282.56
2022-09-28T15:11:25.446Z,99276.50
2022-09-28T15:14:06.285Z,99270.97
2022-09-28T15:16:33.291Z,99273.22
2022-09-28T15:19:22.740Z,99277.47
2022-09-28T15:21:51.067Z,99273.19
2022-09-28T15:24:31.807Z,99284.84
2022-09-28T15:27:13.675Z,99279.88
2022-09-28T15:29:41.047Z,99283.91
2022-09-28T15:32:23.769Z,99288.50
2022-09-28T15:34:54.484Z,99285.31
2022-09-28T15:37:24.197Z,99290.16
2022-09-28T15:39:52.428Z,99292.38
2022-09-28T15:42:19.006Z,99295.09
2022-09-28T15:45:06.405Z,99294.75
2022-09-28T15:47:33.066Z,99295.59
2022-09-28T15:50:00.805Z,99304.84
2022-09-28T15:52:43.772Z,99297.97
2022-09-28T15:55:31.772Z,99303.03
2022-09-28T15:58:06.364Z,99307.94
2022-09-28T16:00:33.095Z,99312.31
2022-09-28T16:03:03.674Z,99308.56
2022-09-28T16:05:35.957Z,99309.97
2022-09-28T16:08:12.490Z,99313.84
2022-09-28T16:10:55.151Z,99314.81
2022-09-28T16:13:23.917Z,99314.13
2022-09-28T16:15:58.068Z,99314.06
2022-09-28T16:18:26.614Z,99316.88
2022-09-28T16:20:56.074Z,99318.97
2022-09-28T16:23:33.940Z,99320.22
2022-09-28T16:26:06.308Z,99315.22
2022-09-28T16:28:34.540Z,99325.25
2022-09-28T16:31:06.348Z,99321.47
2022-09-28T16:33:54.083Z,99328.19
2022-09-28T16:36:24.681Z,99321.75
2022-09-28T16:38:51.309Z,99326.69
2022-09-28T16:41:22.150Z,99334.91
2022-09-28T16:43:51.568Z,99340.03
2022-09-28T16:46:18.191Z,99327.41
2022-09-28T16:48:48.893Z,99346.38
2022-09-28T16:51:16.647Z,99345.06
2022-09-28T16:54:02.881Z,99347.94
2022-09-28T16:56:30.333Z,99348.34
2022-09-28T16:58:56.924Z,99347.03
2022-09-28T17:01:24.170Z,99349.53
2022-09-28T17:03:51.072Z,99349.53
2022-09-28T17:06:19.248Z,99352.31
2022-09-28T17:08:46.043Z,99352.91
2022-09-28T17:11:19.269Z,99356.91
2022-09-28T17:13:49.181Z,99359.25
2022-09-28T17:16:18.386Z,99362.56
2022-09-28T17:18:45.956Z,99366.09
2022-09-28T17:21:18.815Z,99364.72
2022-09-28T17:23:46.742Z,99355.34
2022-09-28T17:26:30.639Z,99362.78
2022-09-28T17:29:01.786Z,99366.13
2022-09-28T17:31:29.844Z,99364.59
2022-09-28T17:33:56.554Z,99359.25
2022-09-28T17:36:23.124Z,99369.72
2022-09-28T17:38:51.561Z,99376.19
2022-09-28T17:41:20.928Z,99376.91
2022-09-28T17:43:48.226Z,99378.00
2022-09-28T17:46:27.975Z,99380.09
2022-09-28T17:48:56.553Z,99379.38
2022-09-28T17:51:23.693Z,99381.31
2022-09-28T17:53:50.104Z,99379.84
2022-09-28T17:56:16.628Z,99388.47
2022-09-28T17:58:43.078Z,99388.16
2022-09-28T18:01:11.047Z,99382.69
2022-09-28T18:03:38.621Z,99390.50
2022-09-28T18:06:07.576Z,99393.50
2022-09-28T18:08:37.422Z,99393.22
2022-09-28T18:11:04.336Z,99398.19
2022-09-28T18:13:30.906Z,99390.72
2022-09-28T18:15:57.697Z,99397.31
2022-09-28T18:18:25.261Z,99400.53
2022-09-28T18:20:52.281Z,99396.94
2022-09-28T18:23:18.897Z,99403.69
2022-09-28T18:25:46.245Z,99404.41
2022-09-28T18:28:13.711Z,99406.25
2022-09-28T18:30:42.416Z,99416.72
2022-09-28T18:33:09.948Z,99413.72
2022-09-28T18:35:36.777Z,99415.94
2022-09-28T18:38:08.006Z,99412.19
2022-09-28T18:40:35.524Z,99419.00
2022-09-28T18:43:03.432Z,99420.16
2022-09-28T18:45:30.092Z,99422.78
2022-09-28T18:47:57.608Z,99431.25
2022-09-28T18:50:24.052Z,99425.38
2022-09-28T18:52:50.587Z,99432.91
2022-09-28T18:55:17.255Z,99426.94
2022-09-28T18:57:44.644Z,99434.75
2022-09-28T19:00:12.828Z,99430.44
2022-09-28T19:02:39.657Z,99439.94
2022-09-28T19:05:07.191Z,99435.84
2022-09-28T19:07:34.390Z,99447.25
2022-09-28T19:10:00.977Z,99439.19
2022-09-28T19:12:28.007Z,99436.19
2022-09-28T19:14:54.803Z,99443.88
2022-09-28T19:17:21.316Z,99443.41
2022-09-28T19:19:47.777Z,99444.00
2022-09-28T19:22:14.194Z,99449.13
2022-09-28T19:24:40.956Z,99442.06
2022-09-28T19:27:07.505Z,99449.13
2022-09-28T19:29:33.972Z,99454.00
2022-09-28T19:32:00.554Z,99457.81
2022-09-28T19:34:30.015Z,99450.81
2022-09-28T19:36:57.094Z,99448.53
2022-09-28T19:39:23.648Z,99448.22
2022-09-28T19:41:51.327Z,99449.84
2022-09-28T19:44:27.489Z,99455.22
2022-09-28T19:47:06.595Z,99455.94
2022-09-28T19:49:37.797Z,99456.75
2022-09-28T19:52:17.314Z,99452.91
2022-09-28T19:54:45.208Z,99452.09
2022-09-28T19:57:14.394Z,99446.19
2022-09-28T19:59:41.298Z,99455.91
2022-09-28T20:02:08.597Z,99454.00
2022-09-28T20:04:35.257Z,99453.13
2022-09-28T20:07:03.640Z,99460.09
2022-09-28T20:09:30.149Z,99455.50
2022-09-28T20:11:56.949Z,99450.06
2022-09-28T20:14:25.836Z,99455.50
2022-09-28T20:16:53.214Z,99452.78
2022-09-28T20:19:21.620Z,99449.84
2022-09-28T20:21:48.273Z,99446.84
2022-09-28T20:24:16.727Z,99459.88
2022-09-28T20:26:44.680Z,99457.53
2022-09-28T20:29:11.786Z,99455.66
2022-09-28T20:31:38.602Z,99460.56
2022-09-28T20:34:06.035Z,99457.34
2022-09-28T20:36:32.575Z,99460.84
2022-09-28T20:39:03.260Z,99470.03
2022-09-28T20:41:35.780Z,99471.44
2022-09-28T20:44:05.978Z,99470.03
2022-09-28T20:46:34.928Z,99467.56
2022-09-28T20:49:01.732Z,99465.97
2022-09-28T20:51:28.229Z,99470.81
2022-09-28T20:53:57.038Z,99474.59
2022-09-28T20:56:27.685Z,99472.19
2022-09-28T20:58:55.080Z,99481.97
2022-09-28T21:01:27.335Z,99478.78
2022-09-28T21:03:58.189Z,99482.88
2022-09-28T21:06:28.143Z,99482.66
2022-09-28T21:08:54.956Z,99490.00
2022-09-28T21:11:23.390Z,99485.16
2022-09-28T21:13:55.099Z,99488.97
2022-09-28T21:16:21.634Z,99486.03
2022-09-28T21:18:48.280Z,99483.56
2022-09-28T21:21:17.510Z,99480.63
2022-09-28T21:23:44.890Z,99486.31
2022-09-28T21:26:24.351Z,99485.78
2022-09-28T21:29:04.689Z,99494.47
2022-09-28T21:31:36.923Z,99494.78
2022-09-28T21:34:04.694Z,99491.88
2022-09-28T21:36:32.021Z,99496.19
2022-09-28T21:38:58.459Z,99500.53
2022-09-28T21:41:25.370Z,99506.41
2022-09-28T21:43:52.067Z,99497.16
2022-09-28T21:46:18.558Z,99504.13
2022-09-28T21:48:45.238Z,99501.19
2022-09-28T21:51:15.182Z,99499.00
2022-09-28T21:53:42.810Z,99504.06
2022-09-28T21:56:11.505Z,99507.84
2022-09-28T21:58:40.196Z,99506.44
2022-09-28T22:01:17.954Z,99505.88
2022-09-28T22:03:50.523Z,99505.09
2022-09-28T22:06:22.928Z,99513.25
2022-09-28T22:08:50.490Z,99508.88
2022-09-28T22:11:47.856Z,99505.59
2022-09-28T22:14:14.605Z,99513.19
2022-09-28T22:16:41.421Z,99516.41
2022-09-28T22:19:07.876Z,99508.59
2022-09-28T22:21:35.167Z,99508.88
2022-09-28T22:24:04.021Z,99518.66
2022-09-28T22:26:32.310Z,99513.53
2022-09-28T22:29:01.089Z,99508.47
2022-09-28T22:31:35.327Z,99513.16
2022-09-28T22:34:02.414Z,99513.47
2022-09-28T22:36:29.475Z,99501.31
2022-09-28T22:38:56.706Z,99506.78
2022-09-28T22:41:24.344Z,99516.25
2022-09-28T22:43:52.865Z,99514.41
2022-09-28T22:46:22.322Z,99512.25
2022-09-28T22:48:52.172Z,99516.03
2022-09-28T22:51:19.448Z,99517.47
2022-09-28T22:53:46.282Z,99514.53
2022-09-28T22:56:18.496Z,99514.00
2022-09-28T22:58:46.419Z,99521.31
2022-09-28T23:01:18.639Z,99524.88
2022-09-28T23:03:45.708Z,99519.22
2022-09-28T23:06:14.917Z,99515.69
2022-09-28T23:08:41.564Z,99525.19
2022-09-28T23:11:08.130Z,99518.72
2022-09-28T23:13:35.275Z,99513.31
2022-09-28T23:16:04.104Z,99520.88
2022-09-28T23:18:33.181Z,99516.03
2022-09-28T23:21:05.443Z,99524.19
2022-09-28T23:23:32.995Z,99521.78
2022-09-28T23:26:00.117Z,99517.75
2022-09-28T23:28:27.522Z,99519.38
2022-09-28T23:30:54.601Z,99519.13
2022-09-28T23:33:22.102Z,99520.22
2022-09-28T23:35:49.332Z,99520.78
2022-09-28T23:38:20.219Z,99523.50
2022-09-28T23:40:46.828Z,99522.66
2022-09-28T23:43:14.300Z,99525.66
2022-09-28T23:45:44.400Z,99525.69
2022-09-28T23:48:14.921Z,99531.34
2022-09-28T23:50:43.500Z,99520.03
2022-09-28T23:53:10.787Z,99528.38
2022-09-28T23:55:37.889Z,99527.28
2022-09-28T23:58:04.745Z,99529.69
